Time;durP1;ratioP1;P1;durP2;ratioP2;P2;SDS_P1;SDS_P2;PMS_P1;PMS_P2;Temp;Humidity;BMP_temperature;BMP_pressure;BME280_temperature;BME280_humidity;BME280_pressure;Samples;Min_cycle;Max_cycle;Signal;HPM_P1;HPM_P2
2022/04/12 00:01:37;;;;;;;9.48;5.25;;;;;;;9.53;48.52;100908.91;5024295;28;20034;-86
2022/04/12 00:04:03;;;;;;;7.60;4.80;;;;;;;9.51;48.81;100904.56;5021483;28;20017;-87
2022/04/12 00:06:29;;;;;;;8.23;4.97;;;;;;;9.52;48.62;100901.84;5030220;28;20512;-86
2022/04/12 00:08:55;;;;;;;8.90;5.18;;;;;;;9.48;48.95;100889.63;5025027;28;20030;-86
2022/04/12 00:11:20;;;;;;;6.60;4.65;;;;;;;9.48;48.61;100897.59;5015385;28;20084;-86
2022/04/12 00:13:45;;;;;;;8.80;5.07;;;;;;;9.45;49.08;100895.97;5017604;28;20233;-87
2022/04/12 00:16:11;;;;;;;5.28;4.53;;;;;;;9.42;49.20;100893.44;5021826;28;20030;-86
2022/04/12 00:21:20;;;;;;;6.30;4.32;;;;;;;9.37;49.04;100884.81;5029729;28;20459;-87
2022/04/12 00:23:46;;;;;;;5.57;4.22;;;;;;;9.34;49.58;100884.09;5027132;28;20075;-86
2022/04/12 00:26:12;;;;;;;9.05;4.85;;;;;;;9.27;49.41;100872.00;5033963;28;20091;-87
2022/04/12 00:28:38;;;;;;;8.57;4.80;;;;;;;9.32;49.68;100880.63;5032369;28;20037;-86
2022/04/12 00:31:03;;;;;;;8.95;4.57;;;;;;;9.31;49.19;100884.22;5031165;28;20368;-87
2022/04/12 00:33:29;;;;;;;6.97;4.53;;;;;;;9.26;49.78;100876.47;5026384;28;20091;-85
2022/04/12 00:35:56;;;;;;;8.48;4.55;;;;;;;9.26;49.94;100880.91;5030621;28;20068;-87
2022/04/12 00:38:25;;;;;;;7.10;4.85;;;;;;;9.21;49.77;100875.81;5023697;28;20034;-86
2022/04/12 00:40:51;;;;;;;5.70;4.25;;;;;;;9.17;50.27;100877.75;5025704;28;20154;-87
2022/04/12 00:43:21;;;;;;;6.97;4.50;;;;;;;9.12;50.06;100869.13;5030262;28;20840;-87
2022/04/12 00:45:47;;;;;;;7.13;4.35;;;;;;;9.11;50.10;100872.72;5025225;28;20030;-86
2022/04/12 00:48:13;;;;;;;7.43;4.57;;;;;;;9.13;50.19;100877.94;5031272;28;20018;-86
2022/04/12 00:50:40;;;;;;;7.72;4.13;;;;;;;9.11;50.38;100878.03;5033589;28;20421;-86
2022/04/12 00:53:07;;;;;;;6.57;4.63;;;;;;;9.05;50.47;100874.75;5029476;28;20112;-86
2022/04/12 00:55:34;;;;;;;7.70;4.57;;;;;;;9.06;50.67;100871.16;5030728;28;20037;-87
2022/04/12 00:58:05;;;;;;;8.30;4.90;;;;;;;9.03;50.79;100866.88;5031989;28;20103;-87
2022/04/12 01:00:30;;;;;;;6.93;4.68;;;;;;;8.97;50.68;100868.00;5034672;28;20057;-87
2022/04/12 01:02:56;;;;;;;9.85;5.20;;;;;;;8.93;50.85;100858.44;5032611;28;20073;-87
2022/04/12 01:05:21;;;;;;;8.38;5.03;;;;;;;8.92;50.88;100867.34;5032183;28;20470;-87
2022/04/12 01:07:50;;;;;;;8.43;4.68;;;;;;;8.92;50.98;100870.00;5032172;28;20041;-87
2022/04/12 01:10:15;;;;;;;8.18;5.05;;;;;;;8.85;51.27;100867.66;5027643;28;20044;-87
2022/04/12 01:12:41;;;;;;;6.88;4.57;;;;;;;8.87;51.24;100876.44;5028139;28;20034;-87
2022/04/12 01:15:24;;;;;;;9.10;5.30;;;;;;;8.81;50.88;100863.41;5031623;28;20124;-87
2022/04/12 01:17:51;;;;;;;5.93;4.65;;;;;;;8.82;51.52;100867.78;5026961;28;20334;-85
2022/04/12 01:20:19;;;;;;;5.80;4.57;;;;;;;8.78;51.79;100863.53;5031802;28;20090;-86
2022/04/12 01:23:05;;;;;;;7.20;5.22;;;;;;;8.77;51.93;100865.34;5030815;28;20025;-85
2022/04/12 01:25:31;;;;;;;8.57;4.78;;;;;;;8.73;52.46;100866.41;5032164;28;20026;-86
2022/04/12 01:27:56;;;;;;;6.00;4.43;;;;;;;8.67;51.92;100866.66;5033547;28;20490;-86
2022/04/12 01:30:21;;;;;;;8.82;4.88;;;;;;;8.70;52.46;100871.84;5030155;28;20041;-86
2022/04/12 01:32:47;;;;;;;7.88;4.90;;;;;;;8.69;52.43;100865.69;5021855;28;20065;-86
2022/04/12 01:35:12;;;;;;;9.75;4.60;;;;;;;8.66;52.50;100863.16;5029225;28;20486;-86
2022/04/12 01:37:37;;;;;;;8.80;4.50;;;;;;;8.65;52.22;100864.09;5016715;28;20071;-86
2022/04/12 01:40:04;;;;;;;6.45;4.35;;;;;;;8.63;52.59;100870.38;5031212;28;20025;-87
2022/04/12 01:42:29;;;;;;;6.90;5.32;;;;;;;8.60;52.57;100862.53;5027500;28;20502;-86
2022/04/12 01:44:55;;;;;;;6.50;4.80;;;;;;;8.61;52.82;100867.81;5009270;28;20113;-86
2022/04/12 01:47:20;;;;;;;5.35;4.18;;;;;;;8.59;52.80;100868.78;5031821;28;20025;-86
2022/04/12 01:49:46;;;;;;;6.93;4.43;;;;;;;8.54;53.01;100861.03;5026975;28;20041;-87
2022/04/12 01:52:11;;;;;;;9.95;4.80;;;;;;;8.52;53.21;100859.34;5028667;28;20036;-86
2022/04/12 01:54:37;;;;;;;10.30;4.90;;;;;;;8.50;53.13;100869.19;5030100;28;20120;-86
2022/04/12 01:57:03;;;;;;;7.32;5.20;;;;;;;8.45;53.53;100862.28;5030397;28;20165;-86
2022/04/12 01:59:28;;;;;;;6.13;4.63;;;;;;;8.40;53.59;100852.75;5028414;28;20041;-86
2022/04/12 02:01:53;;;;;;;8.57;4.97;;;;;;;8.38;54.18;100850.19;5018538;28;20034;-86
2022/04/12 02:04:19;;;;;;;7.25;4.78;;;;;;;8.31;54.03;100846.03;5029906;28;20113;-86
2022/04/12 02:06:44;;;;;;;8.73;4.95;;;;;;;8.24;54.58;100847.22;5030567;28;20056;-86
2022/04/12 02:09:09;;;;;;;7.32;5.00;;;;;;;8.26;54.15;100855.97;5030890;28;20025;-86
2022/04/12 02:11:35;;;;;;;7.60;4.63;;;;;;;8.24;54.19;100857.81;5025211;28;20033;-86
2022/04/12 02:14:00;;;;;;;7.68;5.18;;;;;;;8.19;54.59;100858.00;5026161;28;20536;-86
2022/04/12 02:16:25;;;;;;;5.57;4.70;;;;;;;8.19;54.49;100859.78;5031696;28;20040;-86
2022/04/12 02:18:50;;;;;;;8.25;4.57;;;;;;;8.14;54.63;100859.97;5029785;28;20026;-86
2022/04/12 02:21:16;;;;;;;6.25;4.80;;;;;;;8.11;55.22;100845.97;5031950;28;20044;-86
2022/04/12 02:23:41;;;;;;;7.15;5.10;;;;;;;8.08;54.81;100852.28;5025193;28;20037;-87
2022/04/12 02:26:06;;;;;;;8.57;4.88;;;;;;;8.06;55.19;100855.91;5017021;28;20030;-86
2022/04/12 02:28:31;;;;;;;7.28;4.80;;;;;;;8.02;55.66;100846.34;5024107;28;20029;-86
2022/04/12 02:30:57;;;;;;;6.72;4.88;;;;;;;7.99;55.64;100840.25;5031684;28;20450;-87
2022/04/12 02:33:22;;;;;;;6.30;4.60;;;;;;;7.93;55.64;100843.13;5031451;28;20121;-87
2022/04/12 02:35:47;;;;;;;10.00;4.78;;;;;;;7.95;55.63;100853.69;5024108;28;20077;-86
2022/04/12 02:38:13;;;;;;;7.63;5.22;;;;;;;7.92;56.06;100836.13;5025193;28;20509;-86
2022/04/12 02:40:38;;;;;;;8.52;5.20;;;;;;;7.90;56.25;100845.94;5026170;28;20025;-86
2022/04/12 02:43:04;;;;;;;7.78;5.00;;;;;;;7.84;56.16;100832.91;5024126;28;20052;-86
2022/04/12 02:45:29;;;;;;;7.35;4.70;;;;;;;7.82;56.41;100839.22;5020491;28;20151;-86
2022/04/12 02:47:54;;;;;;;8.68;4.90;;;;;;;7.77;56.60;100843.81;5026231;28;20061;-86
2022/04/12 02:50:19;;;;;;;8.07;4.65;;;;;;;7.72;56.82;100839.53;5029695;28;20021;-86
2022/04/12 02:52:45;;;;;;;6.25;4.78;;;;;;;7.71;57.05;100837.81;5025602;28;20486;-85
2022/04/12 02:55:10;;;;;;;6.97;5.03;;;;;;;7.66;57.00;100834.50;5019925;28;20167;-86
2022/04/12 02:57:35;;;;;;;7.03;4.93;;;;;;;7.64;56.99;100830.19;5030325;28;20458;-86
2022/04/12 03:00:00;;;;;;;6.60;4.65;;;;;;;7.65;57.23;100830.13;5033986;28;20079;-86
2022/04/12 03:02:26;;;;;;;7.90;4.85;;;;;;;7.60;57.40;100816.19;5028386;28;20544;-86
2022/04/12 03:04:51;;;;;;;6.28;4.47;;;;;;;7.63;57.37;100829.31;5030227;28;20009;-86
2022/04/12 03:07:16;;;;;;;5.65;4.53;;;;;;;7.56;57.63;100819.00;5031918;28;20413;-87
2022/04/12 03:09:42;;;;;;;5.75;4.68;;;;;;;7.55;57.41;100831.41;5030759;28;20426;-86
2022/04/12 03:12:08;;;;;;;7.93;4.53;;;;;;;7.52;57.66;100831.50;5028776;28;20431;-86
2022/04/12 03:14:33;;;;;;;5.68;4.78;;;;;;;7.52;57.91;100822.69;5030115;28;20524;-86
2022/04/12 03:16:59;;;;;;;10.35;4.93;;;;;;;7.51;58.09;100819.19;5029436;28;20033;-86
2022/04/12 03:19:24;;;;;;;6.53;4.80;;;;;;;7.52;58.07;100814.75;5024690;28;20375;-86
2022/04/12 03:21:49;;;;;;;8.10;5.00;;;;;;;7.55;58.17;100818.16;5017536;28;20034;-86
2022/04/12 03:24:15;;;;;;;7.43;4.95;;;;;;;7.55;58.28;100818.16;5021473;28;20024;-86
2022/04/12 03:26:40;;;;;;;8.20;4.85;;;;;;;7.37;58.33;100769.41;5017356;28;20121;-86
2022/04/12 03:29:05;;;;;;;7.53;5.15;;;;;;;7.53;58.25;100800.63;5027653;28;20028;-86
2022/04/12 03:31:30;;;;;;;7.80;5.20;;;;;;;7.50;58.42;100785.69;5023716;28;20044;-86
2022/04/12 03:33:56;;;;;;;5.50;4.82;;;;;;;7.46;58.44;100792.88;5025162;28;20030;-86
2022/04/12 03:36:21;;;;;;;9.15;5.07;;;;;;;7.42;58.65;100791.28;5026382;28;20042;-87
2022/04/12 03:38:49;;;;;;;10.07;5.30;;;;;;;7.39;58.76;100795.81;5030545;28;20045;-86
2022/04/12 03:41:19;;;;;;;11.07;5.65;;;;;;;7.35;59.03;100794.22;5026513;28;20029;-86
2022/04/12 03:43:45;;;;;;;7.15;5.05;;;;;;;7.31;58.98;100796.13;5022483;28;20490;-86
2022/04/12 03:46:10;;;;;;;11.63;5.22;;;;;;;7.28;59.08;100788.31;5030692;28;20544;-85
2022/04/12 03:48:35;;;;;;;6.80;5.40;;;;;;;7.31;59.18;100798.75;5022066;28;20069;-86
2022/04/12 03:51:01;;;;;;;9.43;5.25;;;;;;;7.28;59.39;100788.31;5025076;28;20505;-86
2022/04/12 03:53:26;;;;;;;8.23;5.57;;;;;;;7.26;59.56;100790.13;5018889;28;20315;-86
2022/04/12 03:55:51;;;;;;;8.00;5.60;;;;;;;7.22;59.76;100797.31;5010056;28;20061;-86
2022/04/12 03:58:19;;;;;;;8.27;5.40;;;;;;;7.18;59.90;100790.41;5019307;28;20028;-85
2022/04/12 04:00:45;;;;;;;6.90;5.28;;;;;;;7.18;60.00;100793.06;5018264;28;20223;-85
2022/04/12 04:03:10;;;;;;;7.80;5.43;;;;;;;7.18;60.10;100789.56;5030269;28;20143;-86
2022/04/12 04:05:36;;;;;;;7.28;5.03;;;;;;;7.09;60.17;100766.97;5028561;28;20128;-86
2022/04/12 04:08:01;;;;;;;9.63;5.30;;;;;;;7.08;60.23;100772.31;5030531;28;20463;-86
2022/04/12 04:10:26;;;;;;;8.98;5.68;;;;;;;7.09;60.58;100784.63;5033465;28;20033;-86
2022/04/12 04:12:53;;;;;;;5.35;4.85;;;;;;;7.04;60.66;100783.94;5030374;28;20035;-86
2022/04/12 04:15:18;;;;;;;9.55;5.88;;;;;;;7.08;60.54;100790.84;5027470;28;20049;-86
2022/04/12 04:17:45;;;;;;;7.70;5.55;;;;;;;7.08;60.73;100783.75;5026992;28;20103;-86
2022/04/12 04:20:14;;;;;;;12.60;5.82;;;;;;;7.07;60.87;100789.97;5030707;28;20076;-87
2022/04/12 04:22:40;;;;;;;7.97;5.38;;;;;;;7.06;60.75;100793.53;5028672;28;20026;-87
2022/04/12 04:25:08;;;;;;;10.10;6.00;;;;;;;7.07;60.83;100794.41;5032011;28;20032;-86
2022/04/12 04:27:34;;;;;;;8.88;6.00;;;;;;;7.02;60.98;100788.41;5031143;28;20030;-86
2022/04/12 04:29:59;;;;;;;8.77;5.22;;;;;;;6.96;60.92;100787.72;5032067;28;20023;-87
2022/04/12 04:32:24;;;;;;;9.15;6.15;;;;;;;6.94;61.41;100779.00;5031185;28;20056;-87
2022/04/12 04:34:50;;;;;;;8.43;6.15;;;;;;;6.97;61.37;100778.84;5031594;28;20068;-87
2022/04/12 04:37:15;;;;;;;9.27;5.78;;;;;;;6.94;61.63;100780.78;5025227;28;20430;-87
2022/04/12 04:39:40;;;;;;;11.63;5.68;;;;;;;6.93;61.67;100787.81;5032013;28;20029;-87
2022/04/12 04:42:06;;;;;;;9.38;5.82;;;;;;;6.90;61.80;100785.31;5030052;28;20455;-87
2022/04/12 04:44:32;;;;;;;9.15;5.97;;;;;;;6.87;61.99;100787.22;5034383;28;20049;-87
2022/04/12 04:46:57;;;;;;;8.60;5.93;;;;;;;6.86;62.26;100785.50;5030322;28;21663;-87
2022/04/12 04:49:22;;;;;;;10.52;5.90;;;;;;;6.80;62.13;100793.63;5027340;28;20037;-87
2022/04/12 04:51:47;;;;;;;9.65;6.05;;;;;;;6.79;62.54;100805.13;5029535;28;20030;-88
2022/04/12 04:54:13;;;;;;;9.43;6.20;;;;;;;6.73;62.53;100804.44;5029407;28;20042;-87
2022/04/12 04:56:38;;;;;;;8.90;6.43;;;;;;;6.66;62.45;100808.22;5031176;28;20029;-87
2022/04/12 04:59:03;;;;;;;9.63;6.28;;;;;;;6.63;62.73;100818.03;5028971;28;20033;-87
2022/04/12 05:01:29;;;;;;;10.88;6.47;;;;;;;6.58;63.13;100814.69;5027751;28;20013;-87
2022/04/12 05:03:55;;;;;;;8.07;6.53;;;;;;;6.59;63.21;100819.91;5033369;28;20025;-87
2022/04/12 05:06:20;;;;;;;9.57;7.07;;;;;;;6.57;63.28;100807.69;5024694;28;20030;-87
2022/04/12 05:08:46;;;;;;;12.07;7.00;;;;;;;6.66;63.33;100817.94;5030770;28;20064;-87
2022/04/12 05:11:11;;;;;;;10.55;7.18;;;;;;;6.67;63.25;100809.94;5031524;28;20079;-86
2022/04/12 05:13:36;;;;;;;12.70;6.93;;;;;;;6.73;63.16;100817.66;5028980;28;20037;-86
2022/04/12 05:16:02;;;;;;;10.70;6.82;;;;;;;6.76;63.13;100814.03;5027659;28;20048;-87
2022/04/12 05:18:27;;;;;;;10.02;6.43;;;;;;;6.78;63.02;100814.84;5013335;28;20036;-86
2022/04/12 05:20:53;;;;;;;11.00;6.55;;;;;;;6.86;62.92;100825.16;5032207;28;20376;-87
2022/04/12 05:23:18;;;;;;;11.52;7.28;;;;;;;6.88;62.92;100823.31;5031804;28;20451;-87
2022/04/12 05:25:43;;;;;;;11.25;6.93;;;;;;;6.94;62.50;100817.81;5034027;28;20040;-87
2022/04/12 05:28:08;;;;;;;12.18;6.95;;;;;;;7.03;62.70;100811.34;5031344;28;20025;-87
2022/04/12 05:30:34;;;;;;;10.48;6.85;;;;;;;7.11;62.54;100809.25;5031890;28;20045;-87
2022/04/12 05:32:59;;;;;;;11.48;6.70;;;;;;;7.21;62.18;100810.63;5027855;28;20036;-87
2022/04/12 05:35:25;;;;;;;8.45;6.57;;;;;;;7.29;62.06;100805.06;5024992;28;20097;-86
2022/04/12 05:37:52;;;;;;;12.05;7.40;;;;;;;7.37;61.73;100806.50;5028066;28;20085;-87
2022/04/12 05:40:18;;;;;;;11.50;7.53;;;;;;;7.47;61.51;100799.03;5028450;28;20059;-88
2022/04/12 05:42:44;;;;;;;9.93;6.82;;;;;;;7.56;61.33;100796.03;5005514;28;20479;-86
2022/04/12 05:45:11;;;;;;;9.23;7.00;;;;;;;7.64;61.04;100798.38;5033268;28;20040;-86
2022/04/12 05:47:45;;;;;;;9.60;6.50;;;;;;;7.74;60.75;100794.47;5032481;28;20132;-86
2022/04/12 05:50:11;;;;;;;;;;;;;;;7.82;59.70;100795.03;5026221;28;20026;-86
2022/04/12 05:52:38;;;;;;;10.05;6.50;;;;;;;7.85;60.64;100801.97;5025408;28;20302;-85
2022/04/12 05:55:05;;;;;;;10.70;7.10;;;;;;;7.88;60.42;100802.72;5029105;28;20060;-86
2022/04/12 05:57:31;;;;;;;11.13;7.10;;;;;;;7.86;60.31;100803.69;5029740;28;20041;-86
2022/04/12 05:59:56;;;;;;;10.57;6.95;;;;;;;7.90;60.50;100814.13;5028531;28;20033;-86
2022/04/12 06:02:21;;;;;;;12.02;8.07;;;;;;;7.88;60.48;100802.72;5023477;28;20463;-85
2022/04/12 06:04:46;;;;;;;10.65;7.10;;;;;;;7.92;60.37;100814.91;5026141;28;20029;-85
2022/04/12 06:07:12;;;;;;;10.18;7.20;;;;;;;7.93;60.47;100811.34;5028398;28;20156;-85
2022/04/12 06:09:37;;;;;;;11.98;6.45;;;;;;;7.95;60.11;100801.56;5031069;28;20033;-86
2022/04/12 06:12:02;;;;;;;13.10;6.88;;;;;;;8.07;60.08;100807.25;5025720;28;20017;-86
2022/04/12 06:14:28;;;;;;;10.13;6.40;;;;;;;8.21;59.55;100803.13;5028107;28;20037;-86
2022/04/12 06:16:53;;;;;;;8.95;6.63;;;;;;;8.45;59.18;100813.66;5023571;28;20053;-85
2022/04/12 06:19:18;;;;;;;10.27;6.47;;;;;;;8.67;58.65;100806.50;5023993;28;20494;-84
2022/04/12 06:21:43;;;;;;;9.90;6.40;;;;;;;8.94;57.83;100807.06;5028029;28;20025;-83
2022/04/12 06:24:09;;;;;;;9.23;6.53;;;;;;;9.16;57.24;100806.13;5019130;28;20418;-86
2022/04/12 06:26:34;;;;;;;11.43;6.72;;;;;;;9.42;56.38;100808.44;5020480;28;20038;-84
2022/04/12 06:28:59;;;;;;;10.60;6.53;;;;;;;9.61;56.10;100796.91;5031569;28;20025;-85
2022/04/12 06:31:24;;;;;;;8.95;6.60;;;;;;;9.79;55.26;100811.16;5029921;28;20056;-86
2022/04/12 06:33:50;;;;;;;10.90;6.78;;;;;;;9.90;55.46;100804.34;5020793;28;20036;-86
2022/04/12 06:36:15;;;;;;;11.00;6.70;;;;;;;10.09;54.94;100824.75;5030912;28;20026;-87
2022/04/12 06:38:41;;;;;;;11.93;6.78;;;;;;;10.18;53.76;100822.47;5028410;28;20298;-86
2022/04/12 06:41:06;;;;;;;8.75;6.60;;;;;;;10.23;53.93;100830.22;5027480;28;20181;-86
2022/04/12 06:43:31;;;;;;;10.75;6.70;;;;;;;10.27;53.95;100836.28;5023244;28;20406;-86
2022/04/12 06:45:57;;;;;;;11.10;6.63;;;;;;;10.37;53.90;100830.47;5024706;28;20035;-86
2022/04/12 06:48:22;;;;;;;10.27;6.85;;;;;;;10.47;53.80;100826.38;5019547;28;20029;-86
2022/04/12 06:50:47;;;;;;;9.57;6.82;;;;;;;10.56;53.26;100816.19;5014751;28;20053;-86
2022/04/12 06:53:13;;;;;;;7.43;5.82;;;;;;;10.62;53.06;100810.59;5022703;28;20043;-85
2022/04/12 06:55:38;;;;;;;10.88;6.22;;;;;;;10.77;52.79;100817.75;5016472;28;20096;-86
2022/04/12 06:58:03;;;;;;;10.50;6.38;;;;;;;10.87;52.40;100800.38;5021716;28;20482;-86
2022/04/12 07:00:28;;;;;;;9.60;6.38;;;;;;;11.12;52.79;100807.03;5020698;28;20047;-84
2022/04/12 07:02:54;;;;;;;9.60;6.20;;;;;;;11.38;52.14;100809.16;5025248;28;20049;-86
2022/04/12 07:05:19;;;;;;;8.55;6.30;;;;;;;11.71;50.76;100797.59;5023272;28;20034;-86
2022/04/12 07:07:45;;;;;;;7.53;5.90;;;;;;;11.94;50.66;100797.16;5024353;28;20056;-87
2022/04/12 07:10:13;;;;;;;10.05;5.90;;;;;;;12.26;50.01;100789.09;5031745;28;20018;-84
2022/04/12 07:12:39;;;;;;;8.73;5.88;;;;;;;12.54;48.91;100791.00;5024812;28;20194;-86
2022/04/12 07:15:05;;;;;;;7.80;5.63;;;;;;;12.93;48.48;100798.41;5027746;28;20025;-89
2022/04/12 07:17:31;;;;;;;8.27;5.65;;;;;;;13.14;47.64;100793.53;5025425;28;20021;-87
2022/04/12 07:19:56;;;;;;;11.77;5.82;;;;;;;13.42;46.81;100805.22;5027429;28;20076;-89
2022/04/12 07:22:22;;;;;;;9.57;5.85;;;;;;;13.58;46.01;100797.06;5024331;28;20033;-87
2022/04/12 07:24:47;;;;;;;9.10;5.68;;;;;;;13.79;46.09;100793.00;5028592;28;20037;-90
2022/04/12 07:27:13;;;;;;;8.50;5.45;;;;;;;13.97;45.55;100798.97;5032840;28;20036;-86
2022/04/12 07:29:38;;;;;;;7.18;5.32;;;;;;;14.00;45.13;100795.22;5032134;28;20045;-87
2022/04/12 07:32:04;;;;;;;8.98;5.30;;;;;;;14.02;45.35;100790.66;5032136;28;20030;-89
2022/04/12 07:34:29;;;;;;;8.07;5.32;;;;;;;14.02;45.52;100787.97;5033168;28;20068;-87
2022/04/12 07:36:55;;;;;;;9.55;5.50;;;;;;;14.27;45.16;100789.88;5034944;28;20064;-89
2022/04/12 07:39:21;;;;;;;10.80;5.55;;;;;;;14.75;44.80;100798.22;5032017;28;20587;-88
2022/04/12 07:41:47;;;;;;;7.35;5.00;;;;;;;15.30;43.22;100795.22;5025610;28;20900;-89
2022/04/12 07:44:13;;;;;;;6.78;5.47;;;;;;;15.86;42.70;100787.59;5033459;28;20044;-85
2022/04/12 07:46:39;;;;;;;6.40;4.97;;;;;;;16.28;40.63;100779.97;5032565;28;20533;-84
2022/04/12 07:49:04;;;;;;;7.10;5.03;;;;;;;16.61;40.39;100789.97;5021841;28;20029;-82
2022/04/12 07:51:29;;;;;;;8.52;5.50;;;;;;;17.05;40.15;100782.13;5032570;28;20036;-89
2022/04/12 07:53:55;;;;;;;8.32;5.15;;;;;;;17.62;39.50;100789.22;5024605;28;20049;-88
2022/04/12 07:56:20;;;;;;;6.93;5.00;;;;;;;18.21;37.94;100788.00;5031011;28;20732;-84
2022/04/12 07:58:45;;;;;;;8.48;4.95;;;;;;;18.39;36.27;100786.44;5033647;28;20072;-84
2022/04/12 08:01:11;;;;;;;7.45;4.70;;;;;;;18.26;36.48;100789.31;5036523;28;20710;-87
2022/04/12 08:03:36;;;;;;;7.72;4.95;;;;;;;18.28;36.03;100781.97;5031151;28;20160;-86
2022/04/12 08:06:02;;;;;;;5.20;4.57;;;;;;;18.64;35.92;100790.59;5031284;28;20104;-88
2022/04/12 08:08:28;;;;;;;8.38;4.82;;;;;;;18.76;35.07;100794.97;5031858;28;20052;-84
2022/04/12 08:10:53;;;;;;;6.78;4.80;;;;;;;18.90;34.81;100789.25;5029598;28;20029;-87
2022/04/12 08:13:19;;;;;;;7.53;4.10;;;;;;;19.16;35.14;100794.22;5027242;28;20029;-86
2022/04/12 08:15:44;;;;;;;5.20;4.50;;;;;;;19.05;34.31;100784.34;5034139;28;20043;-85
2022/04/12 08:18:10;;;;;;;7.97;4.70;;;;;;;19.30;34.33;100798.38;5030794;28;20483;-85
2022/04/12 08:20:35;;;;;;;6.75;4.53;;;;;;;19.60;34.44;100800.19;5030730;28;20053;-87
2022/04/12 08:23:02;;;;;;;7.65;4.75;;;;;;;19.32;34.05;100797.28;5030873;28;20029;-85
2022/04/12 08:25:27;;;;;;;9.15;4.65;;;;;;;19.30;34.58;100801.94;5028866;28;20009;-84
2022/04/12 08:27:53;;;;;;;6.47;4.50;;;;;;;19.50;34.41;100815.53;5024402;28;20045;-85
2022/04/12 08:30:18;;;;;;;8.88;4.63;;;;;;;19.64;33.78;100807.06;5027506;28;20025;-86
2022/04/12 08:32:44;;;;;;;5.75;4.07;;;;;;;20.02;33.78;100797.34;5030167;28;20394;-85
2022/04/12 08:35:10;;;;;;;6.35;3.42;;;;;;;20.58;32.85;100794.84;5028804;28;20444;-84
2022/04/12 08:37:35;;;;;;;5.22;3.80;;;;;;;21.29;31.97;100786.25;5027230;28;20036;-85
2022/04/12 08:40:01;;;;;;;4.10;3.67;;;;;;;22.04;31.55;100776.16;5031094;28;20037;-85
2022/04/12 08:42:26;;;;;;;4.93;2.97;;;;;;;22.57;30.03;100777.16;5025790;28;20021;-83
2022/04/12 08:44:51;;;;;;;3.97;3.03;;;;;;;22.86;29.61;100782.31;5035457;28;20040;-86
2022/04/12 08:47:18;;;;;;;6.40;3.45;;;;;;;23.34;28.38;100778.22;5025525;28;20032;-86
2022/04/12 08:49:44;;;;;;;5.82;3.15;;;;;;;23.67;27.86;100779.22;5034811;28;20045;-85
2022/04/12 08:52:14;;;;;;;5.07;3.28;;;;;;;24.30;27.50;100769.69;5027656;28;20109;-86
2022/04/12 08:54:41;;;;;;;14.80;3.75;;;;;;;24.98;26.51;100765.75;5029072;28;20321;-86
2022/04/12 08:57:07;;;;;;;4.28;3.65;;;;;;;25.30;26.16;100764.84;5034204;28;20049;-86
2022/04/12 08:59:32;;;;;;;5.22;3.50;;;;;;;25.67;25.85;100758.72;5034526;28;20056;-86
2022/04/12 09:01:58;;;;;;;5.63;3.28;;;;;;;25.61;25.50;100767.59;5023747;28;20034;-86
2022/04/12 09:04:27;;;;;;;6.18;3.22;;;;;;;25.64;24.72;100760.94;5033626;28;20365;-86
2022/04/12 09:06:56;;;;;;;6.20;2.92;;;;;;;25.55;25.58;100762.84;5028526;28;20021;-86
2022/04/12 09:09:24;;;;;;;4.63;2.88;;;;;;;26.15;24.61;100754.00;5028723;28;20117;-85
2022/04/12 09:12:08;;;;;;;3.80;3.00;;;;;;;27.02;25.97;100765.34;5031131;28;20151;-85
2022/04/12 09:14:42;;;;;;;5.10;2.78;;;;;;;27.73;24.61;100767.63;5035397;28;20230;-86
2022/04/12 09:17:13;;;;;;;4.60;2.83;;;;;;;27.61;22.74;100761.78;5038063;28;20025;-86
2022/04/12 09:19:41;;;;;;;4.22;3.00;;;;;;;27.44;23.11;100755.66;5036715;28;20044;-85
2022/04/12 09:22:21;;;;;;;6.80;3.28;;;;;;;27.78;23.60;100752.34;5031732;28;20026;-91
2022/04/12 09:24:48;;;;;;;25.15;6.72;;;;;;;28.51;21.82;100741.31;5028729;28;20445;-87
2022/04/12 09:27:18;;;;;;;10.48;4.10;;;;;;;28.59;21.75;100732.94;5030320;28;20032;-85
2022/04/12 09:29:49;;;;;;;14.85;5.45;;;;;;;29.36;22.22;100739.38;5027934;28;20025;-86
2022/04/12 09:32:16;;;;;;;9.38;4.40;;;;;;;29.41;20.64;100734.13;5023923;28;20021;-85
2022/04/12 09:34:43;;;;;;;8.00;3.53;;;;;;;28.97;20.79;100733.47;5032594;28;20039;-85
2022/04/12 09:37:28;;;;;;;9.45;4.07;;;;;;;28.74;22.40;100725.47;5033011;28;20037;-86
2022/04/12 09:39:59;;;;;;;6.40;3.33;;;;;;;28.07;22.21;100733.28;5028759;28;20072;-87
2022/04/12 09:42:51;;;;;;;11.60;4.55;;;;;;;27.99;23.01;100737.00;5030466;28;20029;-87
2022/04/12 09:45:20;;;;;;;7.28;4.28;;;;;;;27.69;22.63;100739.78;5028297;28;20197;-86
2022/04/12 09:47:51;;;;;;;7.93;3.28;;;;;;;28.00;22.73;100730.47;5023778;28;20033;-83
2022/04/12 09:50:20;;;;;;;5.32;3.58;;;;;;;27.74;22.57;100740.09;5024374;28;20089;-85
2022/04/12 09:53:03;;;;;;;8.00;3.33;;;;;;;28.03;22.99;100732.81;5032487;28;20033;-85
2022/04/12 09:55:34;;;;;;;11.02;5.07;;;;;;;28.06;23.18;100737.91;5025692;28;20050;-86
2022/04/12 09:58:05;;;;;;;6.00;3.72;;;;;;;28.40;22.97;100741.84;5027759;28;20032;-85
2022/04/12 10:00:31;;;;;;;5.45;3.00;;;;;;;28.69;21.91;100738.09;5025082;28;20029;-85
2022/04/12 10:03:00;;;;;;;6.90;3.63;;;;;;;28.98;22.02;100743.38;5015631;28;20096;-86
2022/04/12 10:05:25;;;;;;;6.70;3.13;;;;;;;29.90;21.66;100731.16;5028772;28;20041;-86
2022/04/12 10:07:52;;;;;;;7.20;3.15;;;;;;;29.72;20.84;100733.63;5030889;28;20028;-85
2022/04/12 10:10:19;;;;;;;7.88;3.45;;;;;;;29.04;21.59;100726.13;5021446;28;20120;-86
2022/04/12 10:12:46;;;;;;;5.20;2.90;;;;;;;29.80;20.69;100722.47;5027691;28;20089;-85
2022/04/12 10:15:12;;;;;;;4.63;3.30;;;;;;;30.81;20.30;100719.66;5028120;28;20041;-85
2022/04/12 10:17:37;;;;;;;5.88;3.20;;;;;;;31.70;19.28;100715.34;5028842;28;20037;-85
2022/04/12 10:20:03;;;;;;;5.38;3.10;;;;;;;31.93;18.42;100707.38;5016206;28;20033;-86
2022/04/12 10:22:28;;;;;;;6.05;3.10;;;;;;;31.77;18.50;100707.91;5025503;28;20124;-87
2022/04/12 10:24:55;;;;;;;5.95;3.05;;;;;;;31.28;18.26;100719.53;5023932;28;20190;-86
2022/04/12 10:27:22;;;;;;;7.20;3.05;;;;;;;30.75;19.22;100720.47;5022332;28;20128;-87
2022/04/12 10:30:16;;;;;;;5.80;2.60;;;;;;;30.63;21.47;100703.75;5021565;28;20025;-86
2022/04/12 10:33:05;;;;;;;6.05;3.00;;;;;;;30.74;20.32;100703.16;5025555;28;20083;-86
2022/04/12 10:35:43;;;;;;;5.15;2.80;;;;;;;30.11;20.22;100697.22;5022813;28;20035;-87
2022/04/12 10:38:16;;;;;;;5.72;3.10;;;;;;;29.30;21.28;100688.94;5028696;28;20091;-86
2022/04/12 10:40:43;;;;;;;5.43;2.78;;;;;;;29.15;21.05;100688.25;5024783;28;20029;-86
2022/04/12 10:43:13;;;;;;;6.80;3.17;;;;;;;29.73;20.56;100697.78;5026392;28;20433;-87
2022/04/12 10:45:46;;;;;;;6.85;3.00;;;;;;;30.76;20.25;100687.28;5024720;28;20041;-85
2022/04/12 10:48:19;;;;;;;;;;;;;;;31.80;19.78;100695.59;5028406;28;20088;-86
2022/04/12 10:50:46;;;;;;;4.40;2.60;;;;;;;31.95;19.38;100682.41;5015275;28;19933;-85
2022/04/12 10:53:12;;;;;;;5.47;2.95;;;;;;;32.62;18.46;100686.31;5028398;28;20467;-85
2022/04/12 10:55:43;;;;;;;8.13;3.15;;;;;;;31.50;18.52;100690.69;5023084;28;20060;-86
2022/04/12 10:58:29;;;;;;;4.82;2.80;;;;;;;29.90;20.61;100680.94;5027417;28;20030;-85
2022/04/12 11:00:55;;;;;;;5.10;2.83;;;;;;;28.09;21.79;100676.47;5026213;28;20033;-85
2022/04/12 11:03:43;;;;;;;5.05;2.92;;;;;;;27.05;24.05;100680.31;5029290;28;20060;-85
2022/04/12 11:06:22;;;;;;;6.20;3.15;;;;;;;27.59;23.20;100673.66;5019176;28;20030;-85
2022/04/12 11:08:50;;;;;;;5.40;2.95;;;;;;;28.44;22.23;100685.66;5022987;28;20018;-85
2022/04/12 11:11:21;;;;;;;6.05;3.28;;;;;;;29.07;22.01;100681.03;5023436;28;20552;-85
2022/04/12 11:13:49;;;;;;;7.18;3.20;;;;;;;29.82;21.51;100698.41;5034215;28;20175;-85
2022/04/12 11:16:18;;;;;;;5.82;3.05;;;;;;;28.84;21.23;100697.72;5019302;28;20030;-86
2022/04/12 11:18:54;;;;;;;6.05;3.42;;;;;;;29.21;21.86;100695.63;5020056;28;20080;-86
2022/04/12 11:21:21;;;;;;;4.68;3.17;;;;;;;29.54;20.73;100690.28;5030277;28;20025;-85
2022/04/12 11:24:00;;;;;;;6.13;3.10;;;;;;;29.22;21.35;100689.09;5028000;28;20030;-85
2022/04/12 11:26:52;;;;;;;5.82;2.88;;;;;;;29.13;22.24;100674.72;5023465;28;20033;-84
2022/04/12 11:29:23;;;;;;;6.72;3.38;;;;;;;28.32;22.08;100663.41;5019958;28;20043;-84
2022/04/12 11:31:50;;;;;;;4.38;3.40;;;;;;;28.16;22.21;100678.22;5028257;28;20116;-84